Brecht / Vochten

EBBV · Antwerpen, Flanders, 比利时

罗盘
风向 的 直升机
风: 1 kt, 1 beaufort
0 ft 1.000 2.000 3.000 4.000 5.000
Cloud Cloud
FEW 900
Cloud Cloud Cloud Cloud Cloud Cloud
BKN 2.500
METAR EBAW 211020Z VRB01KT 5000 SHRA FEW009 BKN025 16/15 Q1013 NOSIG

METAR Brecht / Vochten - EBBV

Brecht / Vochten是,比利时中的直升机场。 该机场位于纬度51,33194和经度4,62444。 本场的ICAO机场代码为EBBV。 机场在Bruxelles FIR中。

该航空气象观测是针对安特衛普國際機場在2024年6月21日 12:20, 当地时间进行的。

机场观察

可变方向的风很小或没有风。

可见度为5 km。

有几云在900 ft的高度 和 碎云在2.500 ft的高度。 破损或更高的上限为2.500 ft。

当前天气为阵雨 雨。 温度和风寒是16 °C。 露点为15 °C,相对湿度为94%。 海平面上的气压为1013 hPa (QNH)。

白天

今天,太阳从05:25升起,在22:01降落。 这适用于Brecht / Vochten,世界夏令时可能有所不同。 当地时间与世界标准时间之间的时差为+2 小时。 夏令时目前正在进行中。

公司介绍

我们没有关于这个机场的公司信息。

体会

到Vliegles.nl去找飞行课程,跳伞和其他飞行体验。 浏览页面,了解Brecht / Vochten附近所有可用的活动。 你也可以使用搜索功能来寻找你所在地附近的特定飞行课程、跳伞或其他飞行体验。

乌云

900 ft FEW 几云
2.500 ft BKN 碎云

温度 & 天气

天气 阵雨 雨
温度 16 °C
露点 15 °C
相对湿度 94%
Kp-index 0 (0-9)

白天

日出
05:26
中午
13:44
日落
22:01 (9:12)

小工具

你想在你的网站上有一个关于Brecht / Vochten的当前航空天气(METAR)的小部件吗?

显示HTML代码
报告变更